sensor_id;sensor_type;location;lat;lon;timestamp;pressure;altitude;pressure_sealevel;temperature;humidity
47154;BME280;32907;41.412;2.164;2023-03-12T00:01:23;100316.59;;;21.21;42.14
47154;BME280;32907;41.412;2.164;2023-03-12T00:04:00;100390.44;;;21.66;42.36
47154;BME280;32907;41.412;2.164;2023-03-12T00:06:30;100379.41;;;21.57;42.08
47154;BME280;32907;41.412;2.164;2023-03-12T00:08:58;100389.63;;;21.65;42.09
47154;BME280;32907;41.412;2.164;2023-03-12T00:11:28;100389.63;;;21.65;42.13
47154;BME280;32907;41.412;2.164;2023-03-12T00:13:57;100303.59;;;21.18;42.38
47154;BME280;32907;41.412;2.164;2023-03-12T00:16:27;100360.03;;;21.45;41.74
47154;BME280;32907;41.412;2.164;2023-03-12T00:18:54;100291.25;;;20.93;41.86
47154;BME280;32907;41.412;2.164;2023-03-12T00:21:23;100394.88;;;21.62;42.35
47154;BME280;32907;41.412;2.164;2023-03-12T00:23:51;100391.03;;;21.63;42.89
47154;BME280;32907;41.412;2.164;2023-03-12T00:26:20;100333.16;;;21.24;42.55
47154;BME280;32907;41.412;2.164;2023-03-12T00:28:49;100359.25;;;21.44;42.63
47154;BME280;32907;41.412;2.164;2023-03-12T00:31:25;100396.19;;;21.64;42.49
47154;BME280;32907;41.412;2.164;2023-03-12T00:33:54;100391.03;;;21.63;42.64
47154;BME280;32907;41.412;2.164;2023-03-12T00:36:24;100342.56;;;21.32;42.67
47154;BME280;32907;41.412;2.164;2023-03-12T00:38:54;100399.53;;;21.61;42.23
47154;BME280;32907;41.412;2.164;2023-03-12T00:41:24;100390.25;;;21.62;42.71
47154;BME280;32907;41.412;2.164;2023-03-12T00:43:52;100349.03;;;21.36;42.62
47154;BME280;32907;41.412;2.164;2023-03-12T00:46:20;100350.56;;;21.29;42.68
47154;BME280;32907;41.412;2.164;2023-03-12T00:48:48;100400.34;;;21.62;42.76
47154;BME280;32907;41.412;2.164;2023-03-12T00:51:17;100358.34;;;21.35;42.56
47154;BME280;32907;41.412;2.164;2023-03-12T00:53:45;100341.13;;;21.21;42.65
47154;BME280;32907;41.412;2.164;2023-03-12T00:56:13;100406.41;;;21.59;42.65
47154;BME280;32907;41.412;2.164;2023-03-12T00:58:42;100350.13;;;21.21;42.40
47154;BME280;32907;41.412;2.164;2023-03-12T01:01:10;100403.38;;;21.46;42.50
47154;BME280;32907;41.412;2.164;2023-03-12T01:03:39;100393.91;;;21.44;42.94
47154;BME280;32907;41.412;2.164;2023-03-12T01:06:07;100416.00;;;21.56;42.86
47154;BME280;32907;41.412;2.164;2023-03-12T01:08:37;100400.16;;;21.44;43.12
47154;BME280;32907;41.412;2.164;2023-03-12T01:11:06;100407.22;;;21.45;42.67
47154;BME280;32907;41.412;2.164;2023-03-12T01:13:36;100381.72;;;21.22;42.88
47154;BME280;32907;41.412;2.164;2023-03-12T01:16:05;100401.84;;;21.40;42.63
47154;BME280;32907;41.412;2.164;2023-03-12T01:18:34;100416.13;;;21.51;42.59
47154;BME280;32907;41.412;2.164;2023-03-12T01:21:03;100417.53;;;21.48;42.55
47154;BME280;32907;41.412;2.164;2023-03-12T01:23:32;100376.59;;;21.21;42.75
47154;BME280;32907;41.412;2.164;2023-03-12T01:26:00;100397.84;;;21.38;42.60
47154;BME280;32907;41.412;2.164;2023-03-12T01:28:28;100407.22;;;21.45;42.88
47154;BME280;32907;41.412;2.164;2023-03-12T01:30:56;100400.75;;;21.41;42.46
47154;BME280;32907;41.412;2.164;2023-03-12T01:33:24;100371.03;;;21.26;42.46
47154;BME280;32907;41.412;2.164;2023-03-12T01:35:52;100412.06;;;21.48;42.31
47154;BME280;32907;41.412;2.164;2023-03-12T01:38:23;100421.84;;;21.49;42.57
47154;BME280;32907;41.412;2.164;2023-03-12T01:40:51;100421.06;;;21.49;42.26
47154;BME280;32907;41.412;2.164;2023-03-12T01:43:26;100410.94;;;21.49;42.45
47154;BME280;32907;41.412;2.164;2023-03-12T01:46:26;100401.97;;;21.49;42.34
47154;BME280;32907;41.412;2.164;2023-03-12T01:48:56;100400.97;;;21.45;42.51
47154;BME280;32907;41.412;2.164;2023-03-12T01:51:29;100380.75;;;21.32;42.40
47154;BME280;32907;41.412;2.164;2023-03-12T01:54:01;100379.13;;;21.31;42.25
47154;BME280;32907;41.412;2.164;2023-03-12T01:56:33;100379.75;;;21.28;42.55
47154;BME280;32907;41.412;2.164;2023-03-12T01:59:10;100400.06;;;21.36;42.34
47154;BME280;32907;41.412;2.164;2023-03-12T02:01:40;100381.78;;;21.36;42.47
47154;BME280;32907;41.412;2.164;2023-03-12T02:04:10;100372.69;;;21.27;42.31
47154;BME280;32907;41.412;2.164;2023-03-12T02:06:45;100398.53;;;21.43;42.57
47154;BME280;32907;41.412;2.164;2023-03-12T02:09:15;100389.34;;;21.39;42.19
47154;BME280;32907;41.412;2.164;2023-03-12T02:11:48;100390.44;;;21.38;42.34
47154;BME280;32907;41.412;2.164;2023-03-12T02:14:16;100301.34;;;20.79;42.32
47154;BME280;32907;41.412;2.164;2023-03-12T02:16:44;100359.72;;;21.19;42.12
47154;BME280;32907;41.412;2.164;2023-03-12T02:19:19;100350.03;;;21.13;41.90
47154;BME280;32907;41.412;2.164;2023-03-12T02:21:50;100372.88;;;21.31;41.94
47154;BME280;32907;41.412;2.164;2023-03-12T02:24:25;100380.47;;;21.34;42.17
47154;BME280;32907;41.412;2.164;2023-03-12T02:26:55;100361.16;;;21.30;42.28
47154;BME280;32907;41.412;2.164;2023-03-12T02:29:25;100382.59;;;21.37;42.80
47154;BME280;32907;41.412;2.164;2023-03-12T02:31:56;100359.34;;;21.26;42.64
47154;BME280;32907;41.412;2.164;2023-03-12T02:34:26;100366.41;;;21.27;42.74
47154;BME280;32907;41.412;2.164;2023-03-12T02:36:54;100377.31;;;21.40;42.40
47154;BME280;32907;41.412;2.164;2023-03-12T02:39:21;100333.25;;;21.19;42.45
47154;BME280;32907;41.412;2.164;2023-03-12T02:41:51;100354.91;;;21.43;42.29
47154;BME280;32907;41.412;2.164;2023-03-12T02:44:29;100351.56;;;21.46;42.63
47154;BME280;32907;41.412;2.164;2023-03-12T02:46:59;100358.63;;;21.47;42.72
47154;BME280;32907;41.412;2.164;2023-03-12T02:49:39;100350.56;;;21.42;42.95
47154;BME280;32907;41.412;2.164;2023-03-12T02:52:23;100362.16;;;21.48;43.05
47154;BME280;32907;41.412;2.164;2023-03-12T02:54:56;100361.97;;;21.44;42.94
47154;BME280;32907;41.412;2.164;2023-03-12T02:57:24;100329.06;;;21.27;42.75
47154;BME280;32907;41.412;2.164;2023-03-12T02:59:52;100301.75;;;21.00;42.62
47154;BME280;32907;41.412;2.164;2023-03-12T03:02:21;100374.31;;;21.42;42.60
47154;BME280;32907;41.412;2.164;2023-03-12T03:04:51;100383.97;;;21.48;42.85
47154;BME280;32907;41.412;2.164;2023-03-12T03:07:19;100371.06;;;21.40;42.92
47154;BME280;32907;41.412;2.164;2023-03-12T03:09:47;100385.09;;;21.47;42.86
47154;BME280;32907;41.412;2.164;2023-03-12T03:12:15;100308.13;;;20.95;42.53
47154;BME280;32907;41.412;2.164;2023-03-12T03:14:43;100337.00;;;21.10;43.09
47154;BME280;32907;41.412;2.164;2023-03-12T03:17:11;100384.69;;;21.40;42.73
47154;BME280;32907;41.412;2.164;2023-03-12T03:19:38;100318.91;;;21.00;43.12
47154;BME280;32907;41.412;2.164;2023-03-12T03:22:06;100393.41;;;21.42;42.68
47154;BME280;32907;41.412;2.164;2023-03-12T03:24:34;100394.28;;;21.37;42.75
47154;BME280;32907;41.412;2.164;2023-03-12T03:27:03;100403.19;;;21.43;43.05
47154;BME280;32907;41.412;2.164;2023-03-12T03:29:32;100407.84;;;21.42;43.14
47154;BME280;32907;41.412;2.164;2023-03-12T03:32:01;100417.94;;;21.42;42.83
47154;BME280;32907;41.412;2.164;2023-03-12T03:34:30;100417.13;;;21.41;43.10
47154;BME280;32907;41.412;2.164;2023-03-12T03:36:58;100424.22;;;21.42;43.17
47154;BME280;32907;41.412;2.164;2023-03-12T03:39:28;100396.78;;;21.20;43.12
47154;BME280;32907;41.412;2.164;2023-03-12T03:41:57;100422.19;;;21.34;43.02
47154;BME280;32907;41.412;2.164;2023-03-12T03:44:29;100417.41;;;21.26;43.12
47154;BME280;32907;41.412;2.164;2023-03-12T03:46:58;100438.13;;;21.41;43.22
47154;BME280;32907;41.412;2.164;2023-03-12T03:49:25;100400.09;;;21.17;43.13
47154;BME280;32907;41.412;2.164;2023-03-12T03:51:53;100408.19;;;21.22;43.21
47154;BME280;32907;41.412;2.164;2023-03-12T03:54:29;100313.94;;;20.61;43.50
47154;BME280;32907;41.412;2.164;2023-03-12T03:56:58;100304.31;;;20.50;43.31
47154;BME280;32907;41.412;2.164;2023-03-12T03:59:27;100451.50;;;21.42;43.04
47154;BME280;32907;41.412;2.164;2023-03-12T04:01:55;100421.78;;;21.27;43.15
47154;BME280;32907;41.412;2.164;2023-03-12T04:04:24;100432.69;;;21.27;43.16
47154;BME280;32907;41.412;2.164;2023-03-12T04:06:52;100449.09;;;21.22;43.09
47154;BME280;32907;41.412;2.164;2023-03-12T04:09:21;100390.38;;;20.83;42.90
47154;BME280;32907;41.412;2.164;2023-03-12T04:11:49;100489.75;;;21.37;42.68
47154;BME280;32907;41.412;2.164;2023-03-12T04:14:18;100509.59;;;21.43;42.71
47154;BME280;32907;41.412;2.164;2023-03-12T04:16:46;100521.59;;;21.42;42.54
47154;BME280;32907;41.412;2.164;2023-03-12T04:19:14;100498.41;;;21.26;42.84
47154;BME280;32907;41.412;2.164;2023-03-12T04:21:42;100474.41;;;21.09;42.44
47154;BME280;32907;41.412;2.164;2023-03-12T04:24:15;100501.41;;;21.24;42.43
47154;BME280;32907;41.412;2.164;2023-03-12T04:26:44;100518.31;;;21.26;42.60
47154;BME280;32907;41.412;2.164;2023-03-12T04:29:14;100473.41;;;21.05;42.40
47154;BME280;32907;41.412;2.164;2023-03-12T04:31:42;100501.00;;;21.17;42.53
47154;BME280;32907;41.412;2.164;2023-03-12T04:34:11;100511.22;;;21.25;42.27
47154;BME280;32907;41.412;2.164;2023-03-12T04:36:42;100507.25;;;21.17;42.38
47154;BME280;32907;41.412;2.164;2023-03-12T04:39:12;100528.13;;;21.27;42.68
47154;BME280;32907;41.412;2.164;2023-03-12T04:41:40;100483.69;;;20.94;42.43
47154;BME280;32907;41.412;2.164;2023-03-12T04:44:13;100532.75;;;21.27;42.40
47154;BME280;32907;41.412;2.164;2023-03-12T04:46:41;100542.31;;;21.24;42.71
47154;BME280;32907;41.412;2.164;2023-03-12T04:49:13;100520.06;;;21.03;42.63
47154;BME280;32907;41.412;2.164;2023-03-12T04:51:42;100535.94;;;21.15;42.66
47154;BME280;32907;41.412;2.164;2023-03-12T04:54:10;100537.06;;;21.14;42.60
47154;BME280;32907;41.412;2.164;2023-03-12T04:56:41;100559.59;;;21.19;42.39
47154;BME280;32907;41.412;2.164;2023-03-12T04:59:10;100571.81;;;21.22;42.72
47154;BME280;32907;41.412;2.164;2023-03-12T05:01:39;100572.44;;;21.19;42.83
47154;BME280;32907;41.412;2.164;2023-03-12T05:04:13;100558.13;;;21.08;42.80
47154;BME280;32907;41.412;2.164;2023-03-12T05:06:42;100531.50;;;20.86;42.77
47154;BME280;32907;41.412;2.164;2023-03-12T05:09:10;100584.34;;;21.23;43.02
47154;BME280;32907;41.412;2.164;2023-03-12T05:11:38;100516.56;;;20.65;43.31
47154;BME280;32907;41.412;2.164;2023-03-12T05:14:10;100580.00;;;21.22;43.30
47154;BME280;32907;41.412;2.164;2023-03-12T05:16:40;100542.44;;;21.00;43.38
47154;BME280;32907;41.412;2.164;2023-03-12T05:19:08;100590.41;;;21.20;43.40
47154;BME280;32907;41.412;2.164;2023-03-12T05:21:38;100563.44;;;21.00;43.75
47154;BME280;32907;41.412;2.164;2023-03-12T05:24:07;100564.19;;;21.05;43.55
47154;BME280;32907;41.412;2.164;2023-03-12T05:26:36;100584.00;;;21.11;43.92
47154;BME280;32907;41.412;2.164;2023-03-12T05:29:14;100579.75;;;21.05;43.99
47154;BME280;32907;41.412;2.164;2023-03-12T05:31:42;100592.19;;;21.11;44.05
47154;BME280;32907;41.412;2.164;2023-03-12T05:34:11;100601.06;;;21.16;44.07
47154;BME280;32907;41.412;2.164;2023-03-12T05:36:42;100606.47;;;21.21;44.16
47154;BME280;32907;41.412;2.164;2023-03-12T05:39:14;100596.03;;;21.10;44.44
47154;BME280;32907;41.412;2.164;2023-03-12T05:41:42;100579.09;;;20.94;44.18
47154;BME280;32907;41.412;2.164;2023-03-12T05:44:14;100595.06;;;21.01;44.29
47154;BME280;32907;41.412;2.164;2023-03-12T05:46:46;100583.75;;;20.93;44.21
47154;BME280;32907;41.412;2.164;2023-03-12T05:49:14;100616.94;;;21.14;44.31
47154;BME280;32907;41.412;2.164;2023-03-12T05:51:43;100611.78;;;21.13;44.33
47154;BME280;32907;41.412;2.164;2023-03-12T05:54:11;100618.84;;;21.14;44.76
47154;BME280;32907;41.412;2.164;2023-03-12T05:56:39;100573.72;;;20.89;44.43
47154;BME280;32907;41.412;2.164;2023-03-12T05:59:08;100578.56;;;20.92;44.49
47154;BME280;32907;41.412;2.164;2023-03-12T06:01:39;100545.38;;;20.71;44.58
47154;BME280;32907;41.412;2.164;2023-03-12T06:04:07;100608.56;;;21.11;44.68
47154;BME280;32907;41.412;2.164;2023-03-12T06:06:36;100607.13;;;21.13;44.88
47154;BME280;32907;41.412;2.164;2023-03-12T06:09:05;100587.47;;;20.98;44.80
47154;BME280;32907;41.412;2.164;2023-03-12T06:11:33;100603.53;;;20.99;44.79
47154;BME280;32907;41.412;2.164;2023-03-12T06:14:02;100621.38;;;21.10;45.26
47154;BME280;32907;41.412;2.164;2023-03-12T06:16:32;100609.09;;;20.94;45.33
47154;BME280;32907;41.412;2.164;2023-03-12T06:19:02;100598.97;;;20.94;45.36
47154;BME280;32907;41.412;2.164;2023-03-12T06:21:33;100632.50;;;21.14;44.89
47154;BME280;32907;41.412;2.164;2023-03-12T06:24:04;100639.84;;;21.13;45.00
47154;BME280;32907;41.412;2.164;2023-03-12T06:26:43;100604.44;;;20.94;45.35
47154;BME280;32907;41.412;2.164;2023-03-12T06:29:10;100597.44;;;20.88;45.10
47154;BME280;32907;41.412;2.164;2023-03-12T06:31:38;100642.66;;;21.08;45.09
47154;BME280;32907;41.412;2.164;2023-03-12T06:34:09;100613.47;;;20.90;45.03
47154;BME280;32907;41.412;2.164;2023-03-12T06:36:37;100570.56;;;20.63;45.22
47154;BME280;32907;41.412;2.164;2023-03-12T06:39:05;100592.72;;;20.75;45.21
47154;BME280;32907;41.412;2.164;2023-03-12T06:41:35;100627.13;;;20.90;45.34
47154;BME280;32907;41.412;2.164;2023-03-12T06:44:03;100593.38;;;20.67;45.24
47154;BME280;32907;41.412;2.164;2023-03-12T06:46:33;100667.50;;;21.07;45.47
47154;BME280;32907;41.412;2.164;2023-03-12T06:49:00;100661.53;;;21.05;45.54
47154;BME280;32907;41.412;2.164;2023-03-12T06:51:28;100618.19;;;20.84;45.72
47154;BME280;32907;41.412;2.164;2023-03-12T06:53:56;100657.91;;;21.09;45.68
47154;BME280;32907;41.412;2.164;2023-03-12T06:56:24;100658.44;;;21.11;45.41
47154;BME280;32907;41.412;2.164;2023-03-12T06:58:52;100654.91;;;21.11;45.38
47154;BME280;32907;41.412;2.164;2023-03-12T07:01:20;100578.44;;;20.64;45.60
47154;BME280;32907;41.412;2.164;2023-03-12T07:03:49;100629.25;;;20.93;45.66
47154;BME280;32907;41.412;2.164;2023-03-12T07:06:19;100685.03;;;21.19;45.27
47154;BME280;32907;41.412;2.164;2023-03-12T07:08:47;100685.84;;;21.20;45.62
47154;BME280;32907;41.412;2.164;2023-03-12T07:11:15;100688.28;;;21.21;45.65
47154;BME280;32907;41.412;2.164;2023-03-12T07:13:44;100665.38;;;21.04;45.74
47154;BME280;32907;41.412;2.164;2023-03-12T07:16:13;100697.25;;;21.22;45.62
47154;BME280;32907;41.412;2.164;2023-03-12T07:18:41;100614.66;;;20.65;45.70
47154;BME280;32907;41.412;2.164;2023-03-12T07:21:09;100688.94;;;20.94;45.59
47154;BME280;32907;41.412;2.164;2023-03-12T07:23:37;100532.22;;;19.93;45.68
47154;BME280;32907;41.412;2.164;2023-03-12T07:26:08;100719.91;;;21.22;46.02
47154;BME280;32907;41.412;2.164;2023-03-12T07:28:35;100713.31;;;21.23;45.81
47154;BME280;32907;41.412;2.164;2023-03-12T07:31:05;100715.47;;;21.27;45.89
47154;BME280;32907;41.412;2.164;2023-03-12T07:33:33;100686.06;;;21.05;45.72
47154;BME280;32907;41.412;2.164;2023-03-12T07:36:02;100657.59;;;20.92;45.99
47154;BME280;32907;41.412;2.164;2023-03-12T07:38:30;100716.34;;;21.22;45.56
47154;BME280;32907;41.412;2.164;2023-03-12T07:40:58;100724.78;;;21.26;45.84
47154;BME280;32907;41.412;2.164;2023-03-12T07:43:27;100684.59;;;20.93;46.36
47154;BME280;32907;41.412;2.164;2023-03-12T07:45:55;100724.19;;;21.10;46.37
47154;BME280;32907;41.412;2.164;2023-03-12T07:48:23;100702.63;;;20.89;47.04
47154;BME280;32907;41.412;2.164;2023-03-12T07:50:52;100750.78;;;21.18;46.74
47154;BME280;32907;41.412;2.164;2023-03-12T07:53:21;100767.53;;;21.30;46.62
47154;BME280;32907;41.412;2.164;2023-03-12T07:55:49;100767.53;;;21.30;46.58
47154;BME280;32907;41.412;2.164;2023-03-12T07:58:19;100782.00;;;21.31;47.01
47154;BME280;32907;41.412;2.164;2023-03-12T08:00:47;100762.72;;;21.22;46.99
47154;BME280;32907;41.412;2.164;2023-03-12T08:03:16;100784.66;;;21.36;46.75
47154;BME280;32907;41.412;2.164;2023-03-12T08:05:54;100784.66;;;21.36;46.79
47154;BME280;32907;41.412;2.164;2023-03-12T08:08:23;100764.03;;;21.24;46.63
47154;BME280;32907;41.412;2.164;2023-03-12T08:10:51;100788.94;;;21.42;46.86
47154;BME280;32907;41.412;2.164;2023-03-12T08:13:20;100789.75;;;21.42;46.75
47154;BME280;32907;41.412;2.164;2023-03-12T08:15:52;100769.69;;;21.33;46.72
47154;BME280;32907;41.412;2.164;2023-03-12T08:18:22;100790.78;;;21.46;46.92
47154;BME280;32907;41.412;2.164;2023-03-12T08:20:53;100777.06;;;21.33;46.40
47154;BME280;32907;41.412;2.164;2023-03-12T08:23:21;100794.31;;;21.47;46.59
47154;BME280;32907;41.412;2.164;2023-03-12T08:25:49;100800.28;;;21.49;46.67
47154;BME280;32907;41.412;2.164;2023-03-12T08:28:21;100795.22;;;21.42;46.82
47154;BME280;32907;41.412;2.164;2023-03-12T08:30:54;100797.13;;;21.42;46.58
47154;BME280;32907;41.412;2.164;2023-03-12T08:33:24;100801.09;;;21.49;46.80
47154;BME280;32907;41.412;2.164;2023-03-12T08:35:53;100807.16;;;21.65;50.38
47154;BME280;32907;41.412;2.164;2023-03-12T08:38:21;100802.28;;;21.62;48.58
47154;BME280;32907;41.412;2.164;2023-03-12T08:40:56;100846.13;;;21.90;48.33
47154;BME280;32907;41.412;2.164;2023-03-12T08:43:25;100820.50;;;21.86;51.35
47154;BME280;32907;41.412;2.164;2023-03-12T08:45:57;100843.44;;;22.03;48.02
47154;BME280;32907;41.412;2.164;2023-03-12T08:48:27;100845.97;;;22.00;47.28
47154;BME280;32907;41.412;2.164;2023-03-12T08:50:57;100818.44;;;21.77;47.35
47154;BME280;32907;41.412;2.164;2023-03-12T08:53:26;100824.50;;;21.74;47.51
47154;BME280;32907;41.412;2.164;2023-03-12T08:55:54;100837.03;;;21.75;47.36
47154;BME280;32907;41.412;2.164;2023-03-12T08:58:24;100863.38;;;21.85;47.66
47154;BME280;32907;41.412;2.164;2023-03-12T09:00:53;100834.22;;;21.62;47.61
47154;BME280;32907;41.412;2.164;2023-03-12T09:03:22;100838.81;;;21.66;47.36
47154;BME280;32907;41.412;2.164;2023-03-12T09:06:07;100859.59;;;21.81;48.00
47154;BME280;32907;41.412;2.164;2023-03-12T09:08:40;100857.09;;;21.85;47.73
47154;BME280;32907;41.412;2.164;2023-03-12T09:11:11;100706.97;;;20.90;48.10
47154;BME280;32907;41.412;2.164;2023-03-12T09:14:04;100761.00;;;21.07;48.19
47154;BME280;32907;41.412;2.164;2023-03-12T09:17:01;100598.84;;;20.19;48.29
47154;BME280;32907;41.412;2.164;2023-03-12T09:19:35;100767.50;;;21.35;47.86
47154;BME280;32907;41.412;2.164;2023-03-12T09:22:12;100623.44;;;20.38;48.26
47154;BME280;32907;41.412;2.164;2023-03-12T09:24:50;100590.94;;;20.23;49.18
47154;BME280;32907;41.412;2.164;2023-03-12T09:27:20;100600.47;;;20.20;47.91
47154;BME280;32907;41.412;2.164;2023-03-12T09:29:55;100762.41;;;21.23;48.16
47154;BME280;32907;41.412;2.164;2023-03-12T09:32:34;100594.94;;;20.06;48.61
47154;BME280;32907;41.412;2.164;2023-03-12T09:35:16;100659.28;;;20.45;48.73
47154;BME280;32907;41.412;2.164;2023-03-12T09:37:51;100863.97;;;21.82;48.87
47154;BME280;32907;41.412;2.164;2023-03-12T09:40:30;100654.84;;;20.30;48.93
47154;BME280;32907;41.412;2.164;2023-03-12T09:43:21;100883.28;;;21.86;51.23
47154;BME280;32907;41.412;2.164;2023-03-12T09:45:53;100892.53;;;21.90;50.68
47154;BME280;32907;41.412;2.164;2023-03-12T09:48:31;100891.69;;;21.89;51.95
47154;BME280;32907;41.412;2.164;2023-03-12T09:51:04;100874.91;;;21.82;52.68
47154;BME280;32907;41.412;2.164;2023-03-12T09:53:41;100884.50;;;21.98;51.87
47154;BME280;32907;41.412;2.164;2023-03-12T09:56:16;100893.75;;;21.97;51.21
47154;BME280;32907;41.412;2.164;2023-03-12T09:58:47;100866.16;;;21.80;51.72
47154;BME280;32907;41.412;2.164;2023-03-12T10:01:36;100885.81;;;22.01;52.81
47154;BME280;32907;41.412;2.164;2023-03-12T10:04:15;100893.19;;;22.00;50.47
47154;BME280;32907;41.412;2.164;2023-03-12T10:09:55;100892.88;;;22.02;52.88
47154;BME280;32907;41.412;2.164;2023-03-12T10:20:52;100882.03;;;21.97;50.58
47154;BME280;32907;41.412;2.164;2023-03-12T10:28:59;100855.25;;;21.80;50.92
47154;BME280;32907;41.412;2.164;2023-03-12T10:33:58;100868.22;;;21.88;51.08
47154;BME280;32907;41.412;2.164;2023-03-12T10:36:39;100862.31;;;21.81;51.53
47154;BME280;32907;41.412;2.164;2023-03-12T10:39:16;100873.94;;;21.92;52.06
47154;BME280;32907;41.412;2.164;2023-03-12T10:41:46;100878.50;;;21.96;51.53
47154;BME280;32907;41.412;2.164;2023-03-12T10:44:18;100862.25;;;21.86;51.61
47154;BME280;32907;41.412;2.164;2023-03-12T10:46:56;100876.28;;;21.98;50.81
47154;BME280;32907;41.412;2.164;2023-03-12T10:49:31;100859.38;;;21.96;50.84
47154;BME280;32907;41.412;2.164;2023-03-12T10:54:39;100864.16;;;22.04;52.19
47154;BME280;32907;41.412;2.164;2023-03-12T10:57:08;100825.22;;;21.80;51.46
47154;BME280;32907;41.412;2.164;2023-03-12T10:59:38;100891.50;;;22.23;52.65
47154;BME280;32907;41.412;2.164;2023-03-12T11:07:54;100888.81;;;22.37;49.86
47154;BME280;32907;41.412;2.164;2023-03-12T11:15:39;100875.03;;;22.28;48.92
47154;BME280;32907;41.412;2.164;2023-03-12T11:20:49;100870.66;;;22.27;48.92
47154;BME280;32907;41.412;2.164;2023-03-12T11:23:25;100863.88;;;22.25;48.95
47154;BME280;32907;41.412;2.164;2023-03-12T11:26:11;100858.00;;;22.18;48.99
47154;BME280;32907;41.412;2.164;2023-03-12T11:28:44;100818.81;;;21.90;50.09
47154;BME280;32907;41.412;2.164;2023-03-12T11:31:22;100811.34;;;21.95;49.95
47154;BME280;32907;41.412;2.164;2023-03-12T11:33:58;100794.38;;;21.79;49.12
47154;BME280;32907;41.412;2.164;2023-03-12T11:53:57;100860.03;;;22.26;49.01
47154;BME280;32907;41.412;2.164;2023-03-12T11:56:54;100862.97;;;22.29;49.51
47154;BME280;32907;41.412;2.164;2023-03-12T12:02:48;100843.66;;;22.07;50.16
47154;BME280;32907;41.412;2.164;2023-03-12T12:11:04;100825.09;;;21.53;47.78
47154;BME280;32907;41.412;2.164;2023-03-12T12:22:49;100818.66;;;21.43;49.21
47154;BME280;32907;41.412;2.164;2023-03-12T12:28:22;100762.03;;;21.35;48.97
47154;BME280;32907;41.412;2.164;2023-03-12T12:31:07;100850.47;;;21.91;49.87
47154;BME280;32907;41.412;2.164;2023-03-12T12:34:05;100845.22;;;21.94;48.46
47154;BME280;32907;41.412;2.164;2023-03-12T12:36:40;100773.53;;;21.51;49.32
47154;BME280;32907;41.412;2.164;2023-03-12T12:39:18;100818.88;;;21.85;49.82
47154;BME280;32907;41.412;2.164;2023-03-12T12:41:53;100837.53;;;21.96;50.48
47154;BME280;32907;41.412;2.164;2023-03-12T12:44:31;100841.06;;;21.97;50.31
47154;BME280;32907;41.412;2.164;2023-03-12T12:47:03;100847.06;;;21.99;49.88
47154;BME280;32907;41.412;2.164;2023-03-12T12:49:45;100814.22;;;21.85;49.64
47154;BME280;32907;41.412;2.164;2023-03-12T12:52:18;100833.91;;;22.01;50.51
47154;BME280;32907;41.412;2.164;2023-03-12T12:57:44;100843.44;;;22.03;51.14
47154;BME280;32907;41.412;2.164;2023-03-12T13:02:54;100840.41;;;22.05;49.57
47154;BME280;32907;41.412;2.164;2023-03-12T13:08:04;100836.66;;;22.01;49.38
47154;BME280;32907;41.412;2.164;2023-03-12T13:13:17;100804.63;;;21.88;50.04
47154;BME280;32907;41.412;2.164;2023-03-12T13:15:46;100828.47;;;22.01;49.90
47154;BME280;32907;41.412;2.164;2023-03-12T13:18:28;100817.41;;;21.92;51.03
47154;BME280;32907;41.412;2.164;2023-03-12T13:21:11;100824.00;;;22.05;49.66
47154;BME280;32907;41.412;2.164;2023-03-12T13:26:48;100821.16;;;21.96;49.71
47154;BME280;32907;41.412;2.164;2023-03-12T13:31:59;100807.06;;;21.89;49.70
47154;BME280;32907;41.412;2.164;2023-03-12T13:34:41;100831.69;;;22.03;50.60
47154;BME280;32907;41.412;2.164;2023-03-12T13:45:53;100836.16;;;21.99;49.62
47154;BME280;32907;41.412;2.164;2023-03-12T13:48:23;100830.38;;;22.00;49.77
47154;BME280;32907;41.412;2.164;2023-03-12T13:51:07;100827.16;;;21.98;49.55
47154;BME280;32907;41.412;2.164;2023-03-12T13:53:38;100824.63;;;22.02;50.08
47154;BME280;32907;41.412;2.164;2023-03-12T13:56:12;100823.81;;;22.01;50.14
47154;BME280;32907;41.412;2.164;2023-03-12T14:01:23;100836.97;;;21.99;49.87
47154;BME280;32907;41.412;2.164;2023-03-12T14:03:57;100820.44;;;21.91;50.15
47154;BME280;32907;41.412;2.164;2023-03-12T14:06:28;100829.34;;;21.96;50.27
47154;BME280;32907;41.412;2.164;2023-03-12T14:11:55;100807.34;;;21.88;49.58
47154;BME280;32907;41.412;2.164;2023-03-12T14:14:46;100833.91;;;22.01;49.73
47154;BME280;32907;41.412;2.164;2023-03-12T14:17:21;100804.50;;;21.79;49.46
47154;BME280;32907;41.412;2.164;2023-03-12T14:19:56;100830.88;;;22.02;49.40
47154;BME280;32907;41.412;2.164;2023-03-12T14:22:33;100824.91;;;22.00;49.86
47154;BME280;32907;41.412;2.164;2023-03-12T14:25:36;100828.16;;;22.02;49.82
47154;BME280;32907;41.412;2.164;2023-03-12T14:28:09;100681.28;;;21.15;49.27
47154;BME280;32907;41.412;2.164;2023-03-12T14:30:49;100821.06;;;22.01;49.41
47154;BME280;32907;41.412;2.164;2023-03-12T14:33:20;100831.41;;;22.04;50.03
47154;BME280;32907;41.412;2.164;2023-03-12T14:36:00;100807.22;;;21.98;50.11
47154;BME280;32907;41.412;2.164;2023-03-12T14:38:38;100809.66;;;21.99;49.70
47154;BME280;32907;41.412;2.164;2023-03-12T14:41:24;100790.09;;;21.92;49.39
47154;BME280;32907;41.412;2.164;2023-03-12T14:44:19;100798.13;;;22.02;50.13
47154;BME280;32907;41.412;2.164;2023-03-12T14:49:39;100747.47;;;21.77;49.97
47154;BME280;32907;41.412;2.164;2023-03-12T14:52:10;100808.91;;;22.13;50.01
47154;BME280;32907;41.412;2.164;2023-03-12T14:54:39;100803.81;;;22.06;49.50
47154;BME280;32907;41.412;2.164;2023-03-12T14:57:19;100788.09;;;21.98;49.53
47154;BME280;32907;41.412;2.164;2023-03-12T14:59:58;100765.91;;;21.86;49.19
47154;BME280;32907;41.412;2.164;2023-03-12T15:02:28;100789.50;;;21.95;48.86